sensor_id;sensor_type;location;lat;lon;timestamp;pressure;altitude;pressure_sealevel;temperature;humidity
72798;BME280;61084;55.816;37.036;2024-03-08T00:01:21;99616.81;;;-3.27;53.27
72798;BME280;61084;55.816;37.036;2024-03-08T00:03:47;99606.50;;;-3.33;53.32
72798;BME280;61084;55.816;37.036;2024-03-08T00:06:13;99595.38;;;-3.36;53.45
72798;BME280;61084;55.816;37.036;2024-03-08T00:08:39;99598.78;;;-3.36;53.56
72798;BME280;61084;55.816;37.036;2024-03-08T00:11:05;99606.50;;;-3.36;53.67
72798;BME280;61084;55.816;37.036;2024-03-08T00:13:31;99593.66;;;-3.37;53.66
72798;BME280;61084;55.816;37.036;2024-03-08T00:15:56;99594.50;;;-3.38;54.14
72798;BME280;61084;55.816;37.036;2024-03-08T00:18:23;99590.22;;;-3.38;53.86
72798;BME280;61084;55.816;37.036;2024-03-08T00:20:49;99592.78;;;-3.39;53.88
72798;BME280;61084;55.816;37.036;2024-03-08T00:23:15;99591.94;;;-3.40;53.91
72798;BME280;61084;55.816;37.036;2024-03-08T00:25:41;99583.41;;;-3.37;54.03
72798;BME280;61084;55.816;37.036;2024-03-08T00:28:07;99591.94;;;-3.37;54.13
72798;BME280;61084;55.816;37.036;2024-03-08T00:30:33;99577.41;;;-3.38;54.39
72798;BME280;61084;55.816;37.036;2024-03-08T00:32:59;99573.13;;;-3.37;54.37
72798;BME280;61084;55.816;37.036;2024-03-08T00:35:25;99576.56;;;-3.35;54.62
72798;BME280;61084;55.816;37.036;2024-03-08T00:37:51;99571.44;;;-3.35;54.59
72798;BME280;61084;55.816;37.036;2024-03-08T00:40:17;99574.84;;;-3.35;54.96
72798;BME280;61084;55.816;37.036;2024-03-08T00:42:43;99572.31;;;-3.33;55.17
72798;BME280;61084;55.816;37.036;2024-03-08T00:45:10;99571.41;;;-3.37;55.53
72798;BME280;61084;55.816;37.036;2024-03-08T00:47:36;99563.72;;;-3.37;54.96
72798;BME280;61084;55.816;37.036;2024-03-08T00:50:02;99567.16;;;-3.36;54.88
72798;BME280;61084;55.816;37.036;2024-03-08T00:52:31;99567.16;;;-3.33;54.87
72798;BME280;61084;55.816;37.036;2024-03-08T00:54:57;99555.19;;;-3.33;54.84
72798;BME280;61084;55.816;37.036;2024-03-08T00:57:23;99560.31;;;-3.33;55.25
72798;BME280;61084;55.816;37.036;2024-03-08T00:59:49;99555.22;;;-3.31;55.12
72798;BME280;61084;55.816;37.036;2024-03-08T01:02:14;99560.34;;;-3.30;55.22
72798;BME280;61084;55.816;37.036;2024-03-08T01:04:42;99555.19;;;-3.33;55.07
72798;BME280;61084;55.816;37.036;2024-03-08T01:07:08;99556.03;;;-3.32;55.19
72798;BME280;61084;55.816;37.036;2024-03-08T01:09:34;99553.47;;;-3.34;54.92
72798;BME280;61084;55.816;37.036;2024-03-08T01:12:00;99545.78;;;-3.34;55.23
72798;BME280;61084;55.816;37.036;2024-03-08T01:14:26;99544.91;;;-3.37;55.19
72798;BME280;61084;55.816;37.036;2024-03-08T01:16:52;99546.63;;;-3.38;55.36
72798;BME280;61084;55.816;37.036;2024-03-08T01:19:18;99553.47;;;-3.40;55.01
72798;BME280;61084;55.816;37.036;2024-03-08T01:21:44;99544.03;;;-3.44;55.69
72798;BME280;61084;55.816;37.036;2024-03-08T01:24:10;99544.03;;;-3.42;55.49
72798;BME280;61084;55.816;37.036;2024-03-08T01:26:36;99543.16;;;-3.41;56.19
72798;BME280;61084;55.816;37.036;2024-03-08T01:29:02;99531.22;;;-3.44;55.53
72798;BME280;61084;55.816;37.036;2024-03-08T01:31:30;99527.78;;;-3.43;55.55
72798;BME280;61084;55.816;37.036;2024-03-08T01:33:57;99529.50;;;-3.42;55.25
72798;BME280;61084;55.816;37.036;2024-03-08T01:36:23;99527.81;;;-3.40;55.67
72798;BME280;61084;55.816;37.036;2024-03-08T01:38:49;99526.94;;;-3.39;55.32
72798;BME280;61084;55.816;37.036;2024-03-08T01:41:15;99530.34;;;-3.37;55.73
72798;BME280;61084;55.816;37.036;2024-03-08T01:43:44;99525.25;;;-3.34;55.92
72798;BME280;61084;55.816;37.036;2024-03-08T01:46:13;99529.53;;;-3.34;56.47
72798;BME280;61084;55.816;37.036;2024-03-08T01:48:42;99532.97;;;-3.35;55.98
72798;BME280;61084;55.816;37.036;2024-03-08T01:51:09;99532.06;;;-3.42;55.76
72798;BME280;61084;55.816;37.036;2024-03-08T01:53:37;99544.00;;;-3.45;56.02
72798;BME280;61084;55.816;37.036;2024-03-08T01:56:05;99542.28;;;-3.49;55.36
72798;BME280;61084;55.816;37.036;2024-03-08T01:58:32;99536.28;;;-3.53;56.04
72798;BME280;61084;55.816;37.036;2024-03-08T02:00:59;99542.28;;;-3.52;55.69
72798;BME280;61084;55.816;37.036;2024-03-08T02:03:25;99535.41;;;-3.53;55.74
72798;BME280;61084;55.816;37.036;2024-03-08T02:05:51;99532.84;;;-3.59;55.73
72798;BME280;61084;55.816;37.036;2024-03-08T02:08:19;99541.34;;;-3.65;55.36
72798;BME280;61084;55.816;37.036;2024-03-08T02:10:45;99534.47;;;-3.69;55.97
72798;BME280;61084;55.816;37.036;2024-03-08T02:13:11;99536.16;;;-3.77;56.08
72798;BME280;61084;55.816;37.036;2024-03-08T02:15:58;99539.50;;;-3.84;56.51
72798;BME280;61084;55.816;37.036;2024-03-08T02:18:28;99522.38;;;-3.91;57.33
72798;BME280;61084;55.816;37.036;2024-03-08T02:23:20;99521.53;;;-3.89;56.81
72798;BME280;61084;55.816;37.036;2024-03-08T02:25:49;99520.69;;;-3.85;56.46
72798;BME280;61084;55.816;37.036;2024-03-08T02:28:15;99520.72;;;-3.80;56.33
72798;BME280;61084;55.816;37.036;2024-03-08T02:30:41;99524.16;;;-3.78;56.81
72798;BME280;61084;55.816;37.036;2024-03-08T02:33:08;99520.75;;;-3.77;56.98
72798;BME280;61084;55.816;37.036;2024-03-08T02:35:36;99521.63;;;-3.73;56.91
72798;BME280;61084;55.816;37.036;2024-03-08T02:38:03;99516.53;;;-3.69;56.83
72798;BME280;61084;55.816;37.036;2024-03-08T02:40:29;99523.38;;;-3.65;56.87
72798;BME280;61084;55.816;37.036;2024-03-08T02:42:55;99519.13;;;-3.63;56.97
72798;BME280;61084;55.816;37.036;2024-03-08T02:45:21;99521.72;;;-3.61;56.55
72798;BME280;61084;55.816;37.036;2024-03-08T02:47:47;99515.72;;;-3.60;56.83
72798;BME280;61084;55.816;37.036;2024-03-08T02:50:16;99518.25;;;-3.65;57.29
72798;BME280;61084;55.816;37.036;2024-03-08T02:52:42;99520.81;;;-3.68;57.28
72798;BME280;61084;55.816;37.036;2024-03-08T02:55:09;99515.69;;;-3.65;57.33
72798;BME280;61084;55.816;37.036;2024-03-08T02:57:36;99514.84;;;-3.62;56.77
72798;BME280;61084;55.816;37.036;2024-03-08T03:00:03;99513.16;;;-3.60;58.23
72798;BME280;61084;55.816;37.036;2024-03-08T03:02:35;99507.16;;;-3.64;56.84
72798;BME280;61084;55.816;37.036;2024-03-08T03:05:01;99501.19;;;-3.58;57.15
72798;BME280;61084;55.816;37.036;2024-03-08T03:07:32;99508.00;;;-3.66;57.78
72798;BME280;61084;55.816;37.036;2024-03-08T03:09:59;99506.28;;;-3.64;57.47
72798;BME280;61084;55.816;37.036;2024-03-08T03:12:30;99496.03;;;-3.64;57.75
72798;BME280;61084;55.816;37.036;2024-03-08T03:14:57;99495.16;;;-3.71;57.34
72798;BME280;61084;55.816;37.036;2024-03-08T03:17:23;99492.53;;;-3.80;58.87
72798;BME280;61084;55.816;37.036;2024-03-08T03:19:51;99473.72;;;-3.84;57.72
72798;BME280;61084;55.816;37.036;2024-03-08T03:22:19;99477.13;;;-3.86;58.25
72798;BME280;61084;55.816;37.036;2024-03-08T03:24:46;99470.31;;;-3.86;57.60
72798;BME280;61084;55.816;37.036;2024-03-08T03:27:14;99460.00;;;-3.87;59.00
72798;BME280;61084;55.816;37.036;2024-03-08T03:29:42;99461.75;;;-3.86;58.67
72798;BME280;61084;55.816;37.036;2024-03-08T03:32:14;99466.03;;;-3.82;58.27
72798;BME280;61084;55.816;37.036;2024-03-08T03:34:40;99465.22;;;-3.76;58.65
72798;BME280;61084;55.816;37.036;2024-03-08T03:37:06;99460.03;;;-3.83;58.75
72798;BME280;61084;55.816;37.036;2024-03-08T03:39:34;99459.16;;;-3.91;58.67
72798;BME280;61084;55.816;37.036;2024-03-08T03:42:00;99467.72;;;-3.90;58.85
72798;BME280;61084;55.816;37.036;2024-03-08T03:44:28;99458.28;;;-3.94;58.91
72798;BME280;61084;55.816;37.036;2024-03-08T03:46:54;99465.16;;;-3.92;58.79
72798;BME280;61084;55.816;37.036;2024-03-08T03:49:20;99468.50;;;-3.96;59.18
72798;BME280;61084;55.816;37.036;2024-03-08T03:51:46;99466.81;;;-3.97;58.81
72798;BME280;61084;55.816;37.036;2024-03-08T03:54:12;99470.22;;;-3.98;58.89
72798;BME280;61084;55.816;37.036;2024-03-08T03:56:39;99472.78;;;-3.99;58.80
72798;BME280;61084;55.816;37.036;2024-03-08T03:59:07;99471.91;;;-4.03;58.92
72798;BME280;61084;55.816;37.036;2024-03-08T04:01:33;99470.19;;;-4.04;59.32
72798;BME280;61084;55.816;37.036;2024-03-08T04:04:00;99467.63;;;-4.07;59.45
72798;BME280;61084;55.816;37.036;2024-03-08T04:06:26;99470.16;;;-4.11;60.10
72798;BME280;61084;55.816;37.036;2024-03-08T04:08:52;99463.34;;;-4.09;59.87
72798;BME280;61084;55.816;37.036;2024-03-08T04:11:17;99452.22;;;-4.10;58.35
72798;BME280;61084;55.816;37.036;2024-03-08T04:13:43;99449.59;;;-4.17;60.11
72798;BME280;61084;55.816;37.036;2024-03-08T04:16:09;99450.50;;;-4.14;59.19
72798;BME280;61084;55.816;37.036;2024-03-08T04:18:37;99445.38;;;-4.11;59.34
72798;BME280;61084;55.816;37.036;2024-03-08T04:21:05;99447.97;;;-4.05;58.83
72798;BME280;61084;55.816;37.036;2024-03-08T04:23:34;99441.97;;;-4.08;59.29
72798;BME280;61084;55.816;37.036;2024-03-08T04:26:03;99439.44;;;-4.05;59.32
72798;BME280;61084;55.816;37.036;2024-03-08T04:28:30;99440.28;;;-4.02;58.97
72798;BME280;61084;55.816;37.036;2024-03-08T04:30:57;99443.75;;;-3.98;59.65
72798;BME280;61084;55.816;37.036;2024-03-08T04:33:23;99441.16;;;-4.01;59.31
72798;BME280;61084;55.816;37.036;2024-03-08T04:35:49;99437.75;;;-3.99;59.69
72798;BME280;61084;55.816;37.036;2024-03-08T04:38:15;99440.31;;;-3.96;58.51
72798;BME280;61084;55.816;37.036;2024-03-08T04:40:41;99427.50;;;-3.99;59.63
72798;BME280;61084;55.816;37.036;2024-03-08T04:43:07;99432.63;;;-3.99;59.55
72798;BME280;61084;55.816;37.036;2024-03-08T04:45:34;99437.72;;;-4.03;59.69
72798;BME280;61084;55.816;37.036;2024-03-08T04:48:00;99425.78;;;-4.00;60.03
72798;BME280;61084;55.816;37.036;2024-03-08T04:50:26;99431.78;;;-3.93;60.09
72798;BME280;61084;55.816;37.036;2024-03-08T04:52:55;99432.66;;;-3.91;60.28
72798;BME280;61084;55.816;37.036;2024-03-08T04:55:21;99422.44;;;-3.90;59.72
72798;BME280;61084;55.816;37.036;2024-03-08T04:57:48;99421.53;;;-3.93;58.65
72798;BME280;61084;55.816;37.036;2024-03-08T05:00:14;99413.84;;;-3.95;59.72
72798;BME280;61084;55.816;37.036;2024-03-08T05:02:41;99418.09;;;-4.00;62.20
72798;BME280;61084;55.816;37.036;2024-03-08T05:05:08;99412.09;;;-4.00;60.30
72798;BME280;61084;55.816;37.036;2024-03-08T05:07:41;99415.56;;;-3.97;60.63
72798;BME280;61084;55.816;37.036;2024-03-08T05:10:07;99413.00;;;-3.97;61.12
72798;BME280;61084;55.816;37.036;2024-03-08T05:12:34;99407.88;;;-3.95;60.65
72798;BME280;61084;55.816;37.036;2024-03-08T05:14:59;99401.91;;;-3.93;60.93
72798;BME280;61084;55.816;37.036;2024-03-08T05:17:26;99403.63;;;-3.89;61.23
72798;BME280;61084;55.816;37.036;2024-03-08T05:19:52;99408.75;;;-3.92;61.72
72798;BME280;61084;55.816;37.036;2024-03-08T05:22:17;99396.78;;;-3.93;62.08
72798;BME280;61084;55.816;37.036;2024-03-08T05:24:44;99401.94;;;-3.90;61.26
72798;BME280;61084;55.816;37.036;2024-03-08T05:27:10;99401.06;;;-3.90;62.64
72798;BME280;61084;55.816;37.036;2024-03-08T05:29:36;99385.69;;;-3.89;62.75
72798;BME280;61084;55.816;37.036;2024-03-08T05:32:03;99393.38;;;-3.87;61.41
72798;BME280;61084;55.816;37.036;2024-03-08T05:34:30;99393.38;;;-3.83;62.75
72798;BME280;61084;55.816;37.036;2024-03-08T05:36:56;99392.56;;;-3.80;61.58
72798;BME280;61084;55.816;37.036;2024-03-08T05:39:23;99392.56;;;-3.78;61.54
72798;BME280;61084;55.816;37.036;2024-03-08T05:41:50;99384.88;;;-3.75;62.28
72798;BME280;61084;55.816;37.036;2024-03-08T05:44:16;99378.91;;;-3.73;62.59
72798;BME280;61084;55.816;37.036;2024-03-08T05:46:42;99380.66;;;-3.66;62.12
72798;BME280;61084;55.816;37.036;2024-03-08T05:49:08;99375.53;;;-3.61;61.67
72798;BME280;61084;55.816;37.036;2024-03-08T05:51:37;99385.81;;;-3.54;61.25
72798;BME280;61084;55.816;37.036;2024-03-08T05:54:05;99379.84;;;-3.53;61.54
72798;BME280;61084;55.816;37.036;2024-03-08T05:56:34;99378.13;;;-3.48;61.52
72798;BME280;61084;55.816;37.036;2024-03-08T05:59:01;99387.53;;;-3.48;62.52
72798;BME280;61084;55.816;37.036;2024-03-08T06:01:28;99389.25;;;-3.44;62.71
72798;BME280;61084;55.816;37.036;2024-03-08T06:03:54;99376.41;;;-3.41;61.89
72798;BME280;61084;55.816;37.036;2024-03-08T06:06:24;99383.28;;;-3.34;61.94
72798;BME280;61084;55.816;37.036;2024-03-08T06:08:50;99377.31;;;-3.30;62.04
72798;BME280;61084;55.816;37.036;2024-03-08T06:11:17;99373.91;;;-3.23;61.64
72798;BME280;61084;55.816;37.036;2024-03-08T06:13:44;99376.47;;;-3.20;60.64
72798;BME280;61084;55.816;37.036;2024-03-08T06:16:10;99376.47;;;-3.19;61.30
72798;BME280;61084;55.816;37.036;2024-03-08T06:18:37;99378.19;;;-3.27;60.62
72798;BME280;61084;55.816;37.036;2024-03-08T06:21:04;99383.31;;;-3.21;61.72
72798;BME280;61084;55.816;37.036;2024-03-08T06:23:33;99385.88;;;-3.15;62.12
72798;BME280;61084;55.816;37.036;2024-03-08T06:25:59;99373.06;;;-3.10;62.47
72798;BME280;61084;55.816;37.036;2024-03-08T06:28:25;99378.22;;;-3.07;61.94
72798;BME280;61084;55.816;37.036;2024-03-08T06:30:51;99380.78;;;-2.98;61.56
72798;BME280;61084;55.816;37.036;2024-03-08T06:33:17;99380.78;;;-2.90;61.43
72798;BME280;61084;55.816;37.036;2024-03-08T06:35:43;99373.06;;;-2.86;62.39
72798;BME280;61084;55.816;37.036;2024-03-08T06:38:09;99372.22;;;-2.83;61.93
72798;BME280;61084;55.816;37.036;2024-03-08T06:40:37;99372.22;;;-2.77;60.85
72798;BME280;61084;55.816;37.036;2024-03-08T06:43:03;99367.94;;;-2.71;61.15
72798;BME280;61084;55.816;37.036;2024-03-08T06:45:32;99378.19;;;-2.66;62.56
72798;BME280;61084;55.816;37.036;2024-03-08T06:47:58;99368.75;;;-2.63;62.35
72798;BME280;61084;55.816;37.036;2024-03-08T06:50:24;99373.03;;;-2.60;61.43
72798;BME280;61084;55.816;37.036;2024-03-08T06:52:49;99367.06;;;-2.53;61.99
72798;BME280;61084;55.816;37.036;2024-03-08T06:55:22;99368.75;;;-2.42;61.54
72798;BME280;61084;55.816;37.036;2024-03-08T06:57:48;99373.88;;;-2.39;62.20
72798;BME280;61084;55.816;37.036;2024-03-08T07:00:14;99367.03;;;-2.35;61.02
72798;BME280;61084;55.816;37.036;2024-03-08T07:02:44;99363.56;;;-2.20;60.93
72798;BME280;61084;55.816;37.036;2024-03-08T07:05:19;99362.66;;;-2.15;60.37
72798;BME280;61084;55.816;37.036;2024-03-08T07:07:45;99362.66;;;-2.07;61.90
72798;BME280;61084;55.816;37.036;2024-03-08T07:10:14;99372.06;;;-2.03;60.68
72798;BME280;61084;55.816;37.036;2024-03-08T07:12:41;99366.03;;;-1.95;60.70
72798;BME280;61084;55.816;37.036;2024-03-08T07:15:08;99367.72;;;-1.91;60.09
72798;BME280;61084;55.816;37.036;2024-03-08T07:17:39;99365.13;;;-1.83;59.75
72798;BME280;61084;55.816;37.036;2024-03-08T07:20:06;99367.69;;;-1.80;58.42
72798;BME280;61084;55.816;37.036;2024-03-08T07:22:38;99369.41;;;-1.79;59.38
72798;BME280;61084;55.816;37.036;2024-03-08T07:25:07;99363.38;;;-1.78;59.89
72798;BME280;61084;55.816;37.036;2024-03-08T07:27:34;99369.38;;;-1.75;60.19
72798;BME280;61084;55.816;37.036;2024-03-08T07:30:02;99371.06;;;-1.69;60.42
72798;BME280;61084;55.816;37.036;2024-03-08T07:32:30;99366.75;;;-1.63;59.93
72798;BME280;61084;55.816;37.036;2024-03-08T07:34:57;99377.84;;;-1.56;59.85
72798;BME280;61084;55.816;37.036;2024-03-08T07:37:24;99368.44;;;-1.56;60.45
72798;BME280;61084;55.816;37.036;2024-03-08T07:39:50;99368.41;;;-1.48;60.23
72798;BME280;61084;55.816;37.036;2024-03-08T07:42:16;99370.91;;;-1.40;59.77
72798;BME280;61084;55.816;37.036;2024-03-08T07:44:42;99375.19;;;-1.33;60.34
72798;BME280;61084;55.816;37.036;2024-03-08T07:47:08;99369.22;;;-1.41;59.94
72798;BME280;61084;55.816;37.036;2024-03-08T07:49:36;99379.50;;;-1.40;59.41
72798;BME280;61084;55.816;37.036;2024-03-08T07:52:05;99377.78;;;-1.39;59.43
72798;BME280;61084;55.816;37.036;2024-03-08T07:54:33;99373.50;;;-1.42;59.53
72798;BME280;61084;55.816;37.036;2024-03-08T07:57:01;99369.13;;;-1.29;59.59
72798;BME280;61084;55.816;37.036;2024-03-08T07:59:47;99370.78;;;-1.21;58.97
72798;BME280;61084;55.816;37.036;2024-03-08T08:02:12;99362.22;;;-1.20;59.26
72798;BME280;61084;55.816;37.036;2024-03-08T08:04:38;99362.22;;;-1.20;59.09
72798;BME280;61084;55.816;37.036;2024-03-08T08:07:04;99358.78;;;-1.20;58.78
72798;BME280;61084;55.816;37.036;2024-03-08T08:09:30;99352.75;;;-1.16;58.50
72798;BME280;61084;55.816;37.036;2024-03-08T08:12:00;99354.44;;;-1.12;58.73
72798;BME280;61084;55.816;37.036;2024-03-08T08:14:28;99349.25;;;-1.05;58.81
72798;BME280;61084;55.816;37.036;2024-03-08T08:16:55;99355.19;;;-0.97;59.50
72798;BME280;61084;55.816;37.036;2024-03-08T08:19:23;99355.13;;;-0.91;58.72
72798;BME280;61084;55.816;37.036;2024-03-08T08:21:49;99352.56;;;-0.95;59.43
72798;BME280;61084;55.816;37.036;2024-03-08T08:24:14;99356.03;;;-0.98;58.84
72798;BME280;61084;55.816;37.036;2024-03-08T08:26:41;99353.41;;;-0.90;58.98
72798;BME280;61084;55.816;37.036;2024-03-08T08:29:07;99356.84;;;-0.90;59.09
72798;BME280;61084;55.816;37.036;2024-03-08T08:31:33;99354.22;;;-0.87;59.08
72798;BME280;61084;55.816;37.036;2024-03-08T08:33:59;99354.19;;;-0.81;59.50
72798;BME280;61084;55.816;37.036;2024-03-08T08:36:25;99351.56;;;-0.74;59.28
72798;BME280;61084;55.816;37.036;2024-03-08T08:38:51;99348.91;;;-0.68;59.17
72798;BME280;61084;55.816;37.036;2024-03-08T08:41:20;99345.41;;;-0.60;58.77
72798;BME280;61084;55.816;37.036;2024-03-08T08:43:50;99345.34;;;-0.52;59.01
72798;BME280;61084;55.816;37.036;2024-03-08T08:46:19;99341.03;;;-0.53;58.19
72798;BME280;61084;55.816;37.036;2024-03-08T08:48:47;99343.59;;;-0.49;59.20
72798;BME280;61084;55.816;37.036;2024-03-08T08:51:13;99345.22;;;-0.43;58.43
72798;BME280;61084;55.816;37.036;2024-03-08T08:53:39;99347.00;;;-0.47;58.05
72798;BME280;61084;55.816;37.036;2024-03-08T08:56:13;99349.63;;;-0.51;58.05
72798;BME280;61084;55.816;37.036;2024-03-08T08:58:39;99342.69;;;-0.45;59.18
72798;BME280;61084;55.816;37.036;2024-03-08T09:01:06;99343.44;;;-0.34;59.26
72798;BME280;61084;55.816;37.036;2024-03-08T09:03:33;99340.69;;;-0.22;59.25
72798;BME280;61084;55.816;37.036;2024-03-08T09:06:00;99343.28;;;-0.22;58.60
72798;BME280;61084;55.816;37.036;2024-03-08T09:08:28;99342.53;;;-0.30;59.30
72798;BME280;61084;55.816;37.036;2024-03-08T09:10:54;99347.66;;;-0.28;59.01
72798;BME280;61084;55.816;37.036;2024-03-08T09:13:20;99341.63;;;-0.24;59.33
72798;BME280;61084;55.816;37.036;2024-03-08T09:15:46;99348.38;;;-0.17;58.32
72798;BME280;61084;55.816;37.036;2024-03-08T09:18:12;99351.75;;;-0.11;58.64
72798;BME280;61084;55.816;37.036;2024-03-08T09:20:38;99345.66;;;-0.04;58.98
72798;BME280;61084;55.816;37.036;2024-03-08T09:23:06;99345.59;;;0.03;59.49
72798;BME280;61084;55.816;37.036;2024-03-08T09:25:34;99332.59;;;0.12;58.62
72798;BME280;61084;55.816;37.036;2024-03-08T09:27:59;99339.47;;;0.13;58.67
72798;BME280;61084;55.816;37.036;2024-03-08T09:30:25;99347.13;;;0.19;58.77
72798;BME280;61084;55.816;37.036;2024-03-08T09:32:51;99332.47;;;0.21;58.35
72798;BME280;61084;55.816;37.036;2024-03-08T09:35:17;99334.09;;;0.28;58.51
72798;BME280;61084;55.816;37.036;2024-03-08T09:37:43;99329.81;;;0.27;58.68
72798;BME280;61084;55.816;37.036;2024-03-08T09:40:09;99337.41;;;0.37;58.18
72798;BME280;61084;55.816;37.036;2024-03-08T09:42:35;99327.06;;;0.40;58.07
72798;BME280;61084;55.816;37.036;2024-03-08T09:45:11;99325.28;;;0.42;59.32
72798;BME280;61084;55.816;37.036;2024-03-08T09:47:44;99326.09;;;0.47;58.51
72798;BME280;61084;55.816;37.036;2024-03-08T09:50:11;99329.50;;;0.49;58.69
72798;BME280;61084;55.816;37.036;2024-03-08T09:52:40;99329.44;;;0.54;58.78
72798;BME280;61084;55.816;37.036;2024-03-08T09:55:06;99318.13;;;0.61;58.74
72798;BME280;61084;55.816;37.036;2024-03-08T09:57:33;99324.06;;;0.69;58.52
72798;BME280;61084;55.816;37.036;2024-03-08T09:59:59;99323.91;;;0.80;58.63
72798;BME280;61084;55.816;37.036;2024-03-08T10:02:25;99326.44;;;0.83;58.55
72798;BME280;61084;55.816;37.036;2024-03-08T10:04:51;99321.31;;;0.80;58.07
72798;BME280;61084;55.816;37.036;2024-03-08T10:07:20;99326.50;;;0.78;58.67
72798;BME280;61084;55.816;37.036;2024-03-08T10:09:45;99316.19;;;0.78;58.76
72798;BME280;61084;55.816;37.036;2024-03-08T10:12:19;99318.59;;;0.87;58.73
72798;BME280;61084;55.816;37.036;2024-03-08T10:14:45;99315.00;;;0.97;58.46
72798;BME280;61084;55.816;37.036;2024-03-08T10:17:12;99316.69;;;1.00;58.46
72798;BME280;61084;55.816;37.036;2024-03-08T10:19:38;99318.47;;;0.96;59.26
72798;BME280;61084;55.816;37.036;2024-03-08T10:22:05;99313.19;;;1.04;58.40
72798;BME280;61084;55.816;37.036;2024-03-08T10:24:32;99316.59;;;1.06;58.69
72798;BME280;61084;55.816;37.036;2024-03-08T10:27:00;99316.53;;;1.10;58.38
72798;BME280;61084;55.816;37.036;2024-03-08T10:29:49;99318.03;;;1.23;58.89
72798;BME280;61084;55.816;37.036;2024-03-08T10:32:17;99316.19;;;1.28;57.98
72798;BME280;61084;55.816;37.036;2024-03-08T10:34:43;99321.34;;;1.28;57.23
72798;BME280;61084;55.816;37.036;2024-03-08T10:37:15;99310.16;;;1.29;57.75
72798;BME280;61084;55.816;37.036;2024-03-08T10:39:48;99321.28;;;1.33;57.87
72798;BME280;61084;55.816;37.036;2024-03-08T10:42:28;99323.13;;;1.26;58.30
72798;BME280;61084;55.816;37.036;2024-03-08T10:45:19;99320.59;;;1.22;58.11
72798;BME280;61084;55.816;37.036;2024-03-08T10:47:49;99324.00;;;1.25;58.50
72798;BME280;61084;55.816;37.036;2024-03-08T10:50:20;99317.00;;;1.32;58.07
72798;BME280;61084;55.816;37.036;2024-03-08T10:52:52;99321.94;;;1.44;58.12
72798;BME280;61084;55.816;37.036;2024-03-08T10:55:18;99310.66;;;1.49;58.20
72798;BME280;61084;55.816;37.036;2024-03-08T10:57:47;99326.09;;;1.54;57.89
72798;BME280;61084;55.816;37.036;2024-03-08T11:00:14;99319.94;;;1.60;57.65
72798;BME280;61084;55.816;37.036;2024-03-08T11:02:45;99318.31;;;1.56;57.83
72798;BME280;61084;55.816;37.036;2024-03-08T11:05:31;99312.19;;;1.60;57.95
72798;BME280;61084;55.816;37.036;2024-03-08T11:08:02;99312.22;;;1.58;58.59
72798;BME280;61084;55.816;37.036;2024-03-08T11:10:30;99313.00;;;1.62;57.77
72798;BME280;61084;55.816;37.036;2024-03-08T11:12:56;99321.63;;;1.62;57.34
72798;BME280;61084;55.816;37.036;2024-03-08T11:15:24;99320.06;;;1.53;58.47
72798;BME280;61084;55.816;37.036;2024-03-08T11:17:50;99313.25;;;1.48;57.00
72798;BME280;61084;55.816;37.036;2024-03-08T11:20:20;99316.94;;;1.36;58.52
72798;BME280;61084;55.816;37.036;2024-03-08T11:22:56;99322.09;;;1.36;57.59
72798;BME280;61084;55.816;37.036;2024-03-08T11:25:35;99318.66;;;1.36;57.98
72798;BME280;61084;55.816;37.036;2024-03-08T11:28:20;99310.91;;;1.36;57.56
72798;BME280;61084;55.816;37.036;2024-03-08T11:33:30;99306.59;;;1.35;58.43
72798;BME280;61084;55.816;37.036;2024-03-08T11:36:10;99304.81;;;1.38;57.89
72798;BME280;61084;55.816;37.036;2024-03-08T11:38:43;99299.50;;;1.47;58.33
72798;BME280;61084;55.816;37.036;2024-03-08T11:41:10;99305.34;;;1.57;58.93
72798;BME280;61084;55.816;37.036;2024-03-08T11:43:42;99304.31;;;1.66;58.02
72798;BME280;61084;55.816;37.036;2024-03-08T11:46:09;99301.59;;;1.73;58.06
72798;BME280;61084;55.816;37.036;2024-03-08T11:48:35;99303.22;;;1.77;57.96
72798;BME280;61084;55.816;37.036;2024-03-08T11:51:04;99303.09;;;1.83;57.53
72798;BME280;61084;55.816;37.036;2024-03-08T11:53:30;99292.66;;;1.88;57.78
72798;BME280;61084;55.816;37.036;2024-03-08T11:56:10;99297.75;;;1.92;57.78
72798;BME280;61084;55.816;37.036;2024-03-08T11:58:37;99302.06;;;1.93;57.57
72798;BME280;61084;55.816;37.036;2024-03-08T12:01:10;99297.69;;;1.95;57.46
72798;BME280;61084;55.816;37.036;2024-03-08T12:03:40;99306.28;;;1.97;57.31
72798;BME280;61084;55.816;37.036;2024-03-08T12:06:08;99305.38;;;2.00;57.84
72798;BME280;61084;55.816;37.036;2024-03-08T12:08:39;99306.16;;;2.03;57.45
72798;BME280;61084;55.816;37.036;2024-03-08T12:11:05;99297.34;;;2.12;57.51
72798;BME280;61084;55.816;37.036;2024-03-08T12:13:32;99301.66;;;2.13;56.89
72798;BME280;61084;55.816;37.036;2024-03-08T12:16:00;99304.34;;;2.08;56.98
72798;BME280;61084;55.816;37.036;2024-03-08T12:18:27;99305.28;;;2.04;57.20
72798;BME280;61084;55.816;37.036;2024-03-08T12:21:08;99303.56;;;2.03;57.30
72798;BME280;61084;55.816;37.036;2024-03-08T12:23:35;99310.47;;;2.03;57.00
72798;BME280;61084;55.816;37.036;2024-03-08T12:28:40;99316.38;;;2.09;57.43
72798;BME280;61084;55.816;37.036;2024-03-08T12:31:11;99310.34;;;2.10;56.96
72798;BME280;61084;55.816;37.036;2024-03-08T12:33:50;99315.50;;;2.10;57.06
72798;BME280;61084;55.816;37.036;2024-03-08T12:36:17;99321.53;;;2.11;56.90
72798;BME280;61084;55.816;37.036;2024-03-08T12:38:47;99318.97;;;2.09;57.02
72798;BME280;61084;55.816;37.036;2024-03-08T12:41:19;99316.25;;;2.15;57.01
72798;BME280;61084;55.816;37.036;2024-03-08T12:43:46;99308.28;;;2.26;56.87
72798;BME280;61084;55.816;37.036;2024-03-08T12:46:19;99307.25;;;2.33;56.52
72798;BME280;61084;55.816;37.036;2024-03-08T12:48:46;99313.47;;;2.26;56.40
72798;BME280;61084;55.816;37.036;2024-03-08T12:51:19;99313.69;;;2.14;56.77
72798;BME280;61084;55.816;37.036;2024-03-08T12:53:46;99313.84;;;2.08;56.50
72798;BME280;61084;55.816;37.036;2024-03-08T12:56:31;99319.06;;;2.05;56.85
72798;BME280;61084;55.816;37.036;2024-03-08T12:59:00;99319.88;;;2.08;57.23
72798;BME280;61084;55.816;37.036;2024-03-08T13:01:31;99319.81;;;2.10;56.46
72798;BME280;61084;55.816;37.036;2024-03-08T13:03:58;99316.25;;;2.17;56.78